Time;durP1;ratioP1;P1;durP2;ratioP2;P2;SDS_P1;SDS_P2;PMS_P1;PMS_P2;Temp;Humidity;BMP_temperature;BMP_pressure;BME280_temperature;BME280_humidity;BME280_pressure;Samples;Min_cycle;Max_cycle;Signal;HPM_P1;HPM_P2
2023/08/01 00:00:20;;;;;;;2.35;1.40;;;18.90;99.90;;;;;;4228809;28;20106;-56
2023/08/01 00:02:42;;;;;;;1.55;1.45;;;18.90;99.90;;;;;;4227248;28;20276;-55
2023/08/01 00:05:02;;;;;;;1.20;1.20;;;18.90;99.90;;;;;;4229727;28;20059;-56
2023/08/01 00:07:22;;;;;;;1.20;1.20;;;18.80;99.90;;;;;;4230717;28;20280;-56
2023/08/01 00:09:41;;;;;;;1.10;1.10;;;18.80;99.90;;;;;;4229911;28;20047;-56
2023/08/01 00:12:01;;;;;;;1.20;1.20;;;18.90;99.90;;;;;;4230730;28;20282;-56
2023/08/01 00:14:24;;;;;;;1.10;1.10;;;18.90;99.90;;;;;;4228509;28;20059;-55
2023/08/01 00:16:43;;;;;;;1.98;1.25;;;18.90;99.90;;;;;;4227505;28;20366;-56
2023/08/01 00:19:04;;;;;;;1.20;1.20;;;18.80;99.90;;;;;;4226867;28;20263;-56
2023/08/01 00:21:24;;;;;;;1.38;1.27;;;18.90;99.90;;;;;;4232994;28;20243;-56
2023/08/01 00:23:44;;;;;;;1.83;1.20;;;18.60;99.90;;;;;;4228073;28;20050;-56
2023/08/01 00:26:04;;;;;;;1.25;1.20;;;18.50;99.90;;;;;;4228813;28;20138;-55
2023/08/01 00:28:23;;;;;;;2.95;1.00;;;18.40;99.90;;;;;;4231448;28;20061;-56
2023/08/01 00:30:44;;;;;;;1.30;1.20;;;18.40;99.90;;;;;;4228985;28;20109;-56
2023/08/01 00:33:04;;;;;;;1.40;1.30;;;18.50;99.90;;;;;;4228826;28;20358;-56
2023/08/01 00:35:24;;;;;;;1.50;1.40;;;18.60;99.90;;;;;;4230811;28;20038;-56
2023/08/01 00:37:44;;;;;;;1.50;1.40;;;18.70;99.90;;;;;;4229803;28;20081;-55
2023/08/01 00:40:05;;;;;;;1.17;1.17;;;18.70;99.90;;;;;;4229389;28;20243;-56
2023/08/01 00:42:25;;;;;;;1.40;1.40;;;18.80;99.90;;;;;;4225638;28;20085;-55
2023/08/01 00:44:46;;;;;;;1.40;1.40;;;18.80;99.90;;;;;;4230721;28;20062;-55
2023/08/01 00:47:07;;;;;;;2.55;1.30;;;18.80;99.90;;;;;;4230367;28;20086;-56
2023/08/01 00:49:27;;;;;;;1.70;1.25;;;18.70;99.90;;;;;;4225530;28;20306;-56
2023/08/01 00:51:47;;;;;;;1.20;1.20;;;18.60;99.90;;;;;;4228960;28;20357;-55
2023/08/01 00:54:08;;;;;;;1.30;1.20;;;18.60;99.90;;;;;;4228199;28;20093;-55
2023/08/01 00:56:28;;;;;;;1.65;1.10;;;18.50;99.90;;;;;;4228747;28;20035;-55
2023/08/01 00:58:47;;;;;;;1.30;1.30;;;18.40;99.90;;;;;;4225030;28;20063;-55
2023/08/01 01:01:07;;;;;;;1.67;1.63;;;18.20;99.90;;;;;;4229477;28;20085;-56
2023/08/01 01:03:27;;;;;;;1.55;1.45;;;18.30;99.90;;;;;;4231475;22;20056;-56
2023/08/01 01:06:23;;;;;;;2.05;1.40;;;18.10;99.90;;;;;;4197713;28;20048;-57
2023/08/01 01:08:44;;;;;;;1.48;1.40;;;18.00;99.90;;;;;;4187152;28;20052;-57
2023/08/01 01:11:04;;;;;;;1.85;1.60;;;17.90;99.90;;;;;;4184247;28;20078;-56
2023/08/01 01:13:24;;;;;;;1.20;1.10;;;17.90;99.90;;;;;;4186976;28;20142;-56
2023/08/01 01:15:44;;;;;;;1.73;1.38;;;18.00;99.90;;;;;;4181927;28;20378;-57
2023/08/01 01:18:03;;;;;;;1.55;1.55;;;18.10;99.90;;;;;;4195703;28;20043;-56
2023/08/01 01:20:24;;;;;;;1.23;1.10;;;18.00;99.90;;;;;;4192534;28;20079;-56
2023/08/01 01:22:44;;;;;;;2.55;2.05;;;18.00;99.90;;;;;;4179031;28;20508;-57
2023/08/01 01:25:05;;;;;;;1.95;1.23;;;18.00;99.90;;;;;;4191457;28;20059;-56
2023/08/01 01:27:26;;;;;;;1.17;1.10;;;17.90;99.90;;;;;;4187333;28;20236;-57
2023/08/01 01:29:48;;;;;;;2.35;1.27;;;17.90;99.90;;;;;;4189322;28;20052;-57
2023/08/01 01:32:08;;;;;;;1.95;1.45;;;17.80;99.90;;;;;;4183970;28;20379;-57
2023/08/01 01:34:29;;;;;;;1.23;1.23;;;17.80;99.90;;;;;;4190132;28;20060;-57
2023/08/01 01:36:49;;;;;;;2.55;1.63;;;17.80;99.90;;;;;;4184517;28;20048;-56
2023/08/01 01:39:09;;;;;;;1.38;1.27;;;17.70;99.90;;;;;;4181470;28;20043;-56
2023/08/01 01:41:28;;;;;;;1.58;1.48;;;17.70;99.90;;;;;;4181794;28;20049;-56
2023/08/01 01:43:48;;;;;;;1.40;1.40;;;17.60;99.90;;;;;;4178728;28;20105;-56
2023/08/01 01:46:08;;;;;;;1.60;1.50;;;17.50;99.90;;;;;;4176764;28;20390;-57
2023/08/01 01:48:28;;;;;;;1.40;1.33;;;17.50;99.90;;;;;;4178398;28;20084;-57
2023/08/01 01:50:48;;;;;;;1.67;1.58;;;17.50;99.90;;;;;;4181091;28;20087;-56
2023/08/01 01:53:07;;;;;;;1.40;1.30;;;17.50;99.90;;;;;;4183133;28;20045;-57
2023/08/01 01:55:27;;;;;;;1.40;1.30;;;17.40;99.90;;;;;;4180777;28;20048;-56
2023/08/01 01:57:47;;;;;;;1.40;1.40;;;17.30;99.90;;;;;;4181021;28;20041;-56
2023/08/01 02:00:11;;;;;;;1.50;1.40;;;17.10;99.90;;;;;;4182653;28;20067;-56
2023/08/01 02:02:31;;;;;;;1.60;1.50;;;17.10;99.90;;;;;;4182101;28;20053;-57
2023/08/01 02:04:51;;;;;;;1.30;1.30;;;17.10;99.90;;;;;;4188245;28;20090;-56
2023/08/01 02:07:13;;;;;;;1.38;1.38;;;17.20;99.90;;;;;;4182420;28;20044;-56
2023/08/01 02:09:33;;;;;;;3.90;1.20;;;17.20;99.90;;;;;;4183619;28;20365;-56
2023/08/01 02:11:52;;;;;;;1.70;1.60;;;17.10;99.90;;;;;;4181827;28;20075;-56
2023/08/01 02:14:13;;;;;;;1.50;1.50;;;17.10;99.90;;;;;;4180607;28;20384;-57
2023/08/01 02:16:33;;;;;;;2.08;1.20;;;17.20;99.90;;;;;;4182081;28;20059;-57
2023/08/01 02:18:53;;;;;;;1.40;1.40;;;17.20;99.90;;;;;;4179777;28;20044;-56
2023/08/01 02:21:14;;;;;;;1.35;1.35;;;17.20;99.90;;;;;;4178010;28;20049;-57
2023/08/01 02:23:36;;;;;;;1.60;1.60;;;17.10;99.90;;;;;;4179196;28;20051;-56
2023/08/01 02:25:56;;;;;;;1.73;1.63;;;17.00;99.90;;;;;;4181173;28;20080;-57
2023/08/01 02:28:16;;;;;;;1.70;1.58;;;17.10;99.90;;;;;;4187803;28;20047;-57
2023/08/01 02:30:36;;;;;;;1.30;1.30;;;17.10;99.90;;;;;;4179854;28;20087;-56
2023/08/01 02:32:56;;;;;;;2.00;1.73;;;17.10;99.90;;;;;;4182422;28;20092;-56
2023/08/01 02:35:17;;;;;;;1.30;1.30;;;17.10;99.90;;;;;;4181125;28;20048;-56
2023/08/01 02:37:36;;;;;;;1.75;1.75;;;17.10;99.90;;;;;;4181457;28;20055;-56
2023/08/01 02:39:56;;;;;;;2.13;2.00;;;17.00;99.90;;;;;;4179323;28;20049;-56
2023/08/01 02:42:16;;;;;;;1.30;1.20;;;17.00;99.90;;;;;;4183316;28;20086;-56
2023/08/01 02:44:36;;;;;;;1.70;1.60;;;16.90;99.90;;;;;;4180718;28;20048;-57
2023/08/01 02:46:55;;;;;;;1.58;1.48;;;16.90;99.90;;;;;;4177804;28;20406;-57
2023/08/01 02:49:16;;;;;;;3.10;1.77;;;16.80;99.90;;;;;;4181670;28;20040;-56
2023/08/01 02:51:35;;;;;;;1.45;1.40;;;16.70;99.90;;;;;;4185288;28;20393;-56
2023/08/01 02:53:55;;;;;;;1.73;1.63;;;16.80;99.90;;;;;;4184874;28;20053;-57
2023/08/01 02:56:15;;;;;;;2.17;1.67;;;16.70;99.90;;;;;;4174102;28;20094;-56
2023/08/01 02:58:34;;;;;;;1.75;1.65;;;16.50;99.90;;;;;;4176518;28;20060;-56
2023/08/01 03:00:54;;;;;;;1.77;1.52;;;16.40;99.90;;;;;;4182513;28;20048;-57
2023/08/01 03:03:15;;;;;;;1.83;1.58;;;16.50;99.90;;;;;;4181328;28;20313;-56
2023/08/01 03:05:37;;;;;;;3.40;2.03;;;16.50;99.90;;;;;;4180673;28;20059;-56
2023/08/01 03:07:58;;;;;;;1.77;1.67;;;16.50;99.90;;;;;;4180509;28;20124;-56
2023/08/01 03:10:18;;;;;;;1.30;1.30;;;16.50;99.90;;;;;;4179476;28;20398;-56
2023/08/01 03:12:56;;;;;;;1.90;1.80;;;16.40;99.90;;;;;;4176737;28;20048;-56
2023/08/01 03:15:16;;;;;;;2.90;1.90;;;16.40;99.90;;;;;;4180220;28;20087;-56
2023/08/01 03:17:36;;;;;;;1.95;1.85;;;16.30;99.90;;;;;;4185192;28;20274;-56
2023/08/01 03:19:55;;;;;;;1.95;1.90;;;16.30;99.90;;;;;;4179536;28;20275;-56
2023/08/01 03:22:16;;;;;;;2.75;2.45;;;16.30;99.90;;;;;;4179057;28;20080;-57
2023/08/01 03:24:36;;;;;;;1.95;1.90;;;16.20;99.90;;;;;;4180764;28;20056;-57
2023/08/01 03:26:56;;;;;;;2.30;2.28;;;16.20;99.90;;;;;;4181581;28;20040;-57
2023/08/01 03:29:16;;;;;;;2.30;2.20;;;16.20;99.90;;;;;;4180225;28;20040;-56
2023/08/01 03:31:35;;;;;;;2.38;2.28;;;16.10;99.90;;;;;;4181136;28;20235;-57
2023/08/01 03:33:58;;;;;;;4.40;2.40;;;16.10;99.90;;;;;;4179526;28;20091;-56
2023/08/01 03:36:17;;;;;;;2.20;2.00;;;16.10;99.90;;;;;;4178545;28;20419;-57
2023/08/01 03:38:38;;;;;;;1.77;1.67;;;16.10;99.90;;;;;;4178562;28;20056;-56
2023/08/01 03:40:58;;;;;;;1.63;1.55;;;16.10;99.90;;;;;;4182891;28;20036;-56
2023/08/01 03:43:23;;;;;;;1.63;1.50;;;16.20;99.90;;;;;;4177449;28;20088;-56
2023/08/01 03:45:43;;;;;;;2.08;1.88;;;16.20;99.90;;;;;;4178642;28;20371;-57
2023/08/01 03:48:03;;;;;;;1.90;1.80;;;16.10;99.90;;;;;;4179445;28;20084;-56
2023/08/01 03:50:23;;;;;;;2.15;1.98;;;16.10;99.90;;;;;;4180181;28;20047;-56
2023/08/01 03:52:42;;;;;;;1.83;1.83;;;16.10;99.90;;;;;;4180604;28;20044;-57
2023/08/01 03:55:02;;;;;;;3.25;1.70;;;16.10;99.90;;;;;;4180502;28;20048;-56
2023/08/01 03:57:22;;;;;;;1.95;1.95;;;16.00;99.90;;;;;;4180780;28;20055;-56
2023/08/01 03:59:42;;;;;;;1.98;1.88;;;15.90;99.90;;;;;;4181307;28;20045;-56
2023/08/01 04:02:02;;;;;;;2.97;2.55;;;15.90;99.90;;;;;;4180832;28;20402;-56
2023/08/01 04:04:22;;;;;;;2.00;1.90;;;15.70;99.90;;;;;;4180563;28;20059;-56
2023/08/01 04:06:43;;;;;;;1.85;1.83;;;15.70;99.90;;;;;;4181783;28;20204;-56
2023/08/01 04:09:03;;;;;;;5.10;2.22;;;15.70;99.90;;;;;;4180987;28;20052;-56
2023/08/01 04:11:23;;;;;;;1.50;1.50;;;15.70;99.90;;;;;;4177273;28;20324;-56
2023/08/01 04:13:43;;;;;;;1.95;1.85;;;15.80;99.90;;;;;;4180280;28;20396;-57
2023/08/01 04:16:03;;;;;;;3.60;3.25;;;15.80;99.90;;;;;;4182878;28;20113;-57
2023/08/01 04:18:23;;;;;;;2.90;2.17;;;15.80;99.90;;;;;;4175432;28;20092;-56
2023/08/01 04:20:43;;;;;;;2.17;2.08;;;15.70;99.90;;;;;;4179931;28;20097;-56
2023/08/01 04:23:03;;;;;;;2.75;2.55;;;15.70;99.90;;;;;;4178693;28;20072;-56
2023/08/01 04:25:24;;;;;;;1.98;1.92;;;15.70;99.90;;;;;;4181081;28;20363;-56
2023/08/01 04:27:44;;;;;;;2.00;1.83;;;15.90;99.90;;;;;;4181287;28;20039;-56
2023/08/01 04:30:05;;;;;;;1.92;1.83;;;16.00;99.90;;;;;;4179139;28;20063;-56
2023/08/01 04:32:25;;;;;;;1.95;1.85;;;16.00;99.90;;;;;;4181376;28;20284;-56
2023/08/01 04:34:45;;;;;;;2.63;2.00;;;15.90;99.90;;;;;;4178328;28;20104;-56
2023/08/01 04:37:06;;;;;;;2.30;2.20;;;15.90;99.90;;;;;;4178550;28;20048;-56
2023/08/01 04:39:26;;;;;;;2.05;1.95;;;15.80;99.90;;;;;;4178851;28;20049;-56
2023/08/01 04:41:46;;;;;;;3.90;2.53;;;15.80;99.90;;;;;;4182359;28;20390;-56
2023/08/01 04:44:06;;;;;;;3.95;2.00;;;15.70;99.90;;;;;;4176816;28;20064;-56
2023/08/01 04:46:26;;;;;;;1.70;1.70;;;15.60;99.90;;;;;;4178371;28;20079;-57
2023/08/01 04:48:46;;;;;;;2.30;1.90;;;15.60;99.90;;;;;;4180948;28;20072;-56
2023/08/01 04:51:06;;;;;;;2.80;2.60;;;15.70;99.90;;;;;;4179729;28;20052;-57
2023/08/01 04:53:25;;;;;;;3.05;2.67;;;15.60;99.90;;;;;;4179710;28;20108;-58
2023/08/01 04:55:45;;;;;;;2.45;2.35;;;15.60;99.90;;;;;;4180113;28;20040;-56
2023/08/01 04:58:04;;;;;;;1.80;1.67;;;15.50;99.90;;;;;;4180871;28;20107;-56
2023/08/01 05:00:24;;;;;;;2.90;1.65;;;15.60;99.90;;;;;;4178911;28;20105;-56
2023/08/01 05:02:44;;;;;;;2.15;1.83;;;15.60;99.90;;;;;;4177776;28;20487;-57
2023/08/01 05:05:05;;;;;;;3.55;2.15;;;15.50;99.90;;;;;;4182726;28;20056;-56
2023/08/01 05:07:25;;;;;;;2.42;2.13;;;15.50;99.90;;;;;;4179673;28;20109;-56
2023/08/01 05:09:45;;;;;;;2.13;2.03;;;15.60;99.90;;;;;;4177748;28;20095;-56
2023/08/01 05:12:06;;;;;;;2.50;1.95;;;15.80;99.90;;;;;;4179539;28;20285;-56
2023/08/01 05:14:26;;;;;;;2.55;1.65;;;15.70;99.90;;;;;;4178316;28;20040;-56
2023/08/01 05:16:46;;;;;;;2.08;1.98;;;15.60;99.90;;;;;;4178833;28;20247;-56
2023/08/01 05:19:06;;;;;;;2.80;1.52;;;15.80;99.90;;;;;;4177494;28;20048;-56
2023/08/01 05:21:26;;;;;;;2.35;2.25;;;15.90;99.90;;;;;;4179394;28;20047;-57
2023/08/01 05:23:46;;;;;;;3.92;1.88;;;16.00;99.90;;;;;;4183133;28;20140;-56
2023/08/01 05:26:06;;;;;;;2.25;1.88;;;16.20;99.90;;;;;;4177452;28;20043;-56
2023/08/01 05:28:26;;;;;;;2.05;1.95;;;16.50;99.90;;;;;;4182642;28;20056;-56
2023/08/01 05:30:47;;;;;;;2.08;1.50;;;16.70;99.90;;;;;;4181319;28;20052;-56
2023/08/01 05:33:07;;;;;;;2.03;1.77;;;16.80;99.90;;;;;;4185545;28;20271;-56
2023/08/01 05:35:27;;;;;;;1.65;1.65;;;17.00;99.90;;;;;;4180114;28;20100;-56
2023/08/01 05:37:47;;;;;;;1.85;1.73;;;17.20;99.90;;;;;;4183351;28;20277;-56
2023/08/01 05:40:08;;;;;;;1.48;1.38;;;17.30;99.90;;;;;;4183585;28;20394;-56
2023/08/01 05:42:27;;;;;;;1.80;1.70;;;17.40;99.90;;;;;;4189486;28;20048;-57
2023/08/01 05:44:47;;;;;;;1.40;1.30;;;17.50;99.90;;;;;;4180565;28;20287;-56
2023/08/01 05:47:07;;;;;;;1.45;1.35;;;17.60;99.90;;;;;;4183115;28;20288;-56
2023/08/01 05:49:29;;;;;;;2.05;1.85;;;17.70;99.90;;;;;;4184995;28;20043;-56
2023/08/01 05:51:49;;;;;;;1.38;1.38;;;17.90;99.90;;;;;;4183542;28;20072;-57
2023/08/01 05:54:09;;;;;;;1.48;1.38;;;18.00;99.90;;;;;;4181029;28;20056;-57
2023/08/01 05:56:29;;;;;;;2.17;1.58;;;18.20;99.90;;;;;;4181582;28;20060;-56
2023/08/01 05:58:50;;;;;;;1.73;1.63;;;18.20;99.90;;;;;;4181720;28;20087;-56
2023/08/01 06:01:11;;;;;;;1.40;1.40;;;18.30;99.90;;;;;;4181030;28;20045;-56
2023/08/01 06:03:32;;;;;;;2.88;1.60;;;18.50;99.90;;;;;;4182980;28;20072;-56
2023/08/01 06:05:52;;;;;;;1.40;1.40;;;18.60;99.90;;;;;;4179636;28;20253;-57
2023/08/01 06:08:13;;;;;;;1.50;1.40;;;18.70;99.90;;;;;;4178955;28;20068;-57
2023/08/01 06:10:33;;;;;;;1.20;1.20;;;18.90;99.90;;;;;;4180665;28;20048;-57
2023/08/01 06:12:53;;;;;;;2.15;1.00;;;19.10;99.90;;;;;;4185492;28;20359;-57
2023/08/01 06:15:13;;;;;;;2.83;1.20;;;19.30;99.90;;;;;;4181419;28;20410;-57
2023/08/01 06:17:33;;;;;;;1.10;1.10;;;19.60;99.90;;;;;;4182203;28;20096;-57
2023/08/01 06:19:54;;;;;;;1.20;1.20;;;19.90;99.90;;;;;;4181717;28;20067;-57
2023/08/01 06:22:14;;;;;;;3.50;1.00;;;20.20;99.90;;;;;;4182797;28;20228;-57
2023/08/01 06:24:34;;;;;;;1.00;1.00;;;20.30;99.90;;;;;;4185568;28;20227;-57
2023/08/01 06:26:55;;;;;;;1.10;1.10;;;20.20;99.90;;;;;;4175534;28;20056;-57
2023/08/01 06:29:15;;;;;;;1.13;1.13;;;20.40;99.90;;;;;;4181339;28;20053;-57
2023/08/01 06:31:34;;;;;;;2.05;1.00;;;20.80;99.90;;;;;;4181044;28;20048;-57
2023/08/01 06:33:55;;;;;;;2.15;1.33;;;20.90;99.90;;;;;;4177336;28;20112;-57
2023/08/01 06:36:16;;;;;;;2.55;1.25;;;21.20;99.90;;;;;;4180798;28;20076;-57
2023/08/01 06:38:36;;;;;;;1.00;1.00;;;21.40;99.90;;;;;;4175938;28;20274;-57
2023/08/01 06:40:56;;;;;;;1.08;0.98;;;21.60;99.90;;;;;;4175913;28;20043;-57
2023/08/01 06:43:16;;;;;;;2.63;1.00;;;21.90;99.90;;;;;;4183000;28;20048;-57
2023/08/01 06:45:36;;;;;;;1.00;1.00;;;22.00;99.90;;;;;;4178659;28;20374;-57
2023/08/01 06:47:56;;;;;;;1.00;1.00;;;22.10;99.90;;;;;;4185030;28;20071;-57
2023/08/01 06:50:16;;;;;;;0.95;0.95;;;22.20;99.90;;;;;;4178808;28;20044;-57
2023/08/01 06:52:36;;;;;;;1.45;1.00;;;22.50;99.90;;;;;;4180214;28;20052;-57
2023/08/01 06:54:56;;;;;;;1.45;1.00;;;22.70;99.90;;;;;;4184486;28;20068;-57
2023/08/01 06:57:16;;;;;;;1.15;0.98;;;23.00;99.90;;;;;;4174385;28;20052;-57
2023/08/01 06:59:36;;;;;;;1.92;0.90;;;23.00;99.90;;;;;;4180751;28;20275;-56
2023/08/01 07:01:56;;;;;;;1.02;0.90;;;22.80;99.90;;;;;;4178201;28;20088;-57
2023/08/01 07:04:16;;;;;;;1.58;1.27;;;22.60;99.90;;;;;;4174949;28;20047;-57
2023/08/01 07:06:37;;;;;;;1.00;1.00;;;22.60;99.90;;;;;;4177106;28;20048;-57
2023/08/01 07:08:57;;;;;;;3.95;1.42;;;22.70;99.90;;;;;;4180519;28;20121;-57
2023/08/01 07:11:18;;;;;;;1.08;0.98;;;23.30;99.90;;;;;;4182541;28;20044;-57
2023/08/01 07:13:38;;;;;;;3.03;0.90;;;23.60;99.90;;;;;;4178594;28;20101;-57
2023/08/01 07:15:59;;;;;;;0.95;0.95;;;23.70;99.90;;;;;;4182251;28;20290;-57
2023/08/01 07:18:19;;;;;;;1.55;1.00;;;23.90;99.90;;;;;;4188067;28;20079;-57
2023/08/01 07:20:39;;;;;;;1.00;0.90;;;23.90;99.90;;;;;;4183124;28;20048;-57
2023/08/01 07:22:58;;;;;;;3.10;1.33;;;24.10;99.90;;;;;;4189303;28;20102;-57
2023/08/01 07:25:19;;;;;;;3.30;1.10;;;24.40;99.70;;;;;;4183406;28;20225;-57
2023/08/01 07:27:39;;;;;;;1.00;1.00;;;24.50;98.40;;;;;;4175629;28;20466;-57
2023/08/01 07:29:59;;;;;;;0.90;0.90;;;24.50;99.50;;;;;;4178034;28;20052;-57
2023/08/01 07:32:20;;;;;;;2.55;0.82;;;24.90;99.20;;;;;;4177820;28;20267;-57
2023/08/01 07:34:39;;;;;;;0.80;0.80;;;25.30;98.50;;;;;;4174552;28;20264;-57
2023/08/01 07:36:59;;;;;;;2.30;0.82;;;25.70;97.30;;;;;;4179445;28;20363;-57
2023/08/01 07:39:19;;;;;;;1.40;0.88;;;25.30;98.50;;;;;;4175749;28;20060;-57
2023/08/01 07:41:38;;;;;;;5.45;1.00;;;25.40;98.90;;;;;;4182875;28;20275;-57
2023/08/01 07:43:58;;;;;;;0.82;0.82;;;25.80;99.10;;;;;;4173590;28;20049;-57
2023/08/01 07:46:18;;;;;;;10.63;1.13;;;26.10;97.60;;;;;;4177630;28;20051;-57
2023/08/01 07:48:38;;;;;;;0.90;0.80;;;25.90;97.70;;;;;;4184100;28;20094;-57
2023/08/01 07:50:58;;;;;;;0.80;0.80;;;25.90;98.30;;;;;;4177898;28;20072;-57
2023/08/01 07:53:18;;;;;;;1.23;1.00;;;26.20;97.70;;;;;;4178359;28;20091;-57
2023/08/01 07:55:38;;;;;;;1.27;0.90;;;25.80;97.80;;;;;;4182085;28;20074;-57
2023/08/01 07:57:58;;;;;;;0.85;0.82;;;25.80;97.40;;;;;;4173910;28;20299;-58
2023/08/01 08:00:18;;;;;;;2.20;0.90;;;26.20;97.70;;;;;;4179671;28;20351;-57
2023/08/01 08:02:38;;;;;;;1.05;0.80;;;26.70;96.70;;;;;;4177766;28;20092;-58
2023/08/01 08:04:58;;;;;;;1.65;0.80;;;27.00;96.80;;;;;;4175316;28;20059;-57
2023/08/01 08:07:18;;;;;;;1.70;0.93;;;26.90;96.50;;;;;;4178605;28;20047;-57
2023/08/01 08:09:38;;;;;;;1.33;1.02;;;26.60;96.50;;;;;;4175198;28;20048;-57
2023/08/01 08:11:58;;;;;;;0.80;0.80;;;26.30;97.30;;;;;;4181608;28;20048;-57
2023/08/01 08:14:20;;;;;;;2.63;0.80;;;26.10;97.20;;;;;;4173595;28;20113;-57
2023/08/01 08:16:40;;;;;;;5.10;0.80;;;26.40;97.40;;;;;;4178756;28;20067;-57
2023/08/01 08:19:01;;;;;;;2.50;0.80;;;27.00;96.10;;;;;;4183821;28;20329;-57
2023/08/01 08:21:20;;;;;;;2.03;0.80;;;27.40;95.80;;;;;;4175853;28;20367;-57
2023/08/01 08:23:40;;;;;;;0.95;0.80;;;27.70;95.30;;;;;;4179487;28;20066;-57
2023/08/01 08:26:00;;;;;;;1.20;0.90;;;27.30;95.00;;;;;;4182830;28;20079;-58
2023/08/01 08:28:32;;;;;;;1.15;1.05;;;27.20;95.90;;;;;;4174357;28;20272;-58
2023/08/01 08:30:52;;;;;;;2.80;0.80;;;27.30;95.70;;;;;;4178161;28;20145;-58
2023/08/01 08:33:21;;;;;;;1.00;0.82;;;27.70;96.20;;;;;;4177634;28;20366;-58
2023/08/01 08:35:41;;;;;;;2.83;0.80;;;27.40;95.00;;;;;;4174902;28;20052;-58
2023/08/01 08:38:03;;;;;;;2.45;0.70;;;27.30;94.30;;;;;;4178367;28;20099;-57
2023/08/01 08:40:24;;;;;;;1.10;0.70;;;26.80;95.90;;;;;;4176911;28;20113;-57
2023/08/01 08:42:46;;;;;;;0.80;0.70;;;26.90;95.10;;;;;;4183353;28;20366;-57
2023/08/01 08:45:06;;;;;;;0.80;0.80;;;26.50;95.90;;;;;;4176233;28;20127;-57
2023/08/01 08:47:29;;;;;;;1.45;0.73;;;26.00;95.60;;;;;;4178522;28;20124;-57
2023/08/01 08:49:49;;;;;;;1.50;0.80;;;25.70;96.40;;;;;;4183500;28;20047;-57
2023/08/01 08:52:10;;;;;;;0.90;0.90;;;25.70;96.70;;;;;;4173322;28;20249;-57
2023/08/01 08:54:31;;;;;;;0.80;0.80;;;25.80;96.70;;;;;;4177159;28;20397;-57
2023/08/01 08:56:52;;;;;;;2.15;1.08;;;25.60;96.10;;;;;;4181388;28;20049;-57
2023/08/01 08:59:12;;;;;;;1.00;0.90;;;25.50;96.60;;;;;;4176086;28;20233;-57
2023/08/01 09:01:32;;;;;;;2.53;0.80;;;25.40;96.50;;;;;;4181821;28;20064;-58
2023/08/01 09:03:53;;;;;;;0.80;0.80;;;25.30;96.70;;;;;;4177478;28;20048;-58
2023/08/01 09:06:18;;;;;;;0.88;0.80;;;25.30;96.80;;;;;;4184913;28;20591;-58
2023/08/01 09:08:40;;;;;;;1.35;0.80;;;25.60;97.40;;;;;;4176283;28;20075;-57
2023/08/01 09:11:00;;;;;;;1.05;0.80;;;25.40;97.00;;;;;;4180343;28;20240;-57
2023/08/01 09:13:20;;;;;;;2.40;0.80;;;25.20;96.80;;;;;;4186724;28;20083;-57
2023/08/01 09:15:44;;;;;;;2.47;0.80;;;25.30;96.50;;;;;;4179741;28;20232;-57
2023/08/01 09:18:07;;;;;;;1.02;0.80;;;25.10;97.00;;;;;;4182735;28;20228;-58
2023/08/01 09:20:30;;;;;;;;;;;24.80;97.00;;;;;;4186924;28;20048;-58
2023/08/01 09:22:49;;;;;;;1.88;0.85;;;25.00;97.40;;;;;;4175833;28;19924;-57
2023/08/01 09:25:10;;;;;;;2.90;0.75;;;25.00;97.90;;;;;;4179731;28;20087;-58
2023/08/01 09:27:33;;;;;;;0.93;0.90;;;25.10;97.60;;;;;;4180350;28;20140;-57
2023/08/01 09:29:53;;;;;;;0.80;0.80;;;25.30;97.50;;;;;;4175790;28;20095;-57
2023/08/01 09:32:14;;;;;;;1.40;0.80;;;25.50;97.60;;;;;;4181293;28;20052;-57
2023/08/01 09:34:34;;;;;;;2.45;0.90;;;25.80;98.10;;;;;;4182281;28;20442;-57
2023/08/01 09:36:59;;;;;;;0.90;0.85;;;26.00;97.70;;;;;;4177200;28;20395;-57
2023/08/01 09:39:20;;;;;;;0.80;0.80;;;26.00;97.80;;;;;;4179628;28;20279;-57
2023/08/01 09:41:41;;;;;;;0.70;0.70;;;25.90;98.10;;;;;;4181277;28;20236;-57
2023/08/01 09:44:00;;;;;;;5.45;1.08;;;25.60;98.50;;;;;;4187522;28;20121;-57
2023/08/01 09:46:20;;;;;;;2.65;0.90;;;25.50;98.20;;;;;;4179346;28;20095;-57
2023/08/01 09:48:41;;;;;;;1.42;0.90;;;25.30;98.70;;;;;;4181135;28;20044;-57
2023/08/01 09:51:15;;;;;;;1.23;1.00;;;25.40;99.40;;;;;;4181849;28;20409;-57
2023/08/01 09:53:46;;;;;;;1.35;0.90;;;25.70;99.20;;;;;;4177080;28;20241;-57
2023/08/01 09:56:06;;;;;;;2.65;0.90;;;26.10;99.00;;;;;;4181754;28;20048;-57
2023/08/01 09:58:32;;;;;;;0.88;0.88;;;26.70;98.60;;;;;;4176629;28;20090;-57
2023/08/01 10:00:52;;;;;;;0.90;0.80;;;26.80;98.20;;;;;;4180727;28;20060;-58
2023/08/01 10:03:12;;;;;;;0.85;0.70;;;26.70;97.80;;;;;;4177091;28;20048;-57
2023/08/01 10:05:35;;;;;;;3.03;1.00;;;26.70;97.80;;;;;;4180896;28;20113;-58
2023/08/01 10:07:58;;;;;;;0.93;0.70;;;26.80;97.20;;;;;;4185247;28;20367;-57
2023/08/01 10:10:19;;;;;;;0.70;0.70;;;27.20;97.00;;;;;;4186012;28;20047;-58
2023/08/01 10:12:43;;;;;;;1.77;0.80;;;27.80;96.30;;;;;;4181823;28;20060;-58
2023/08/01 10:15:04;;;;;;;0.88;0.60;;;28.20;95.40;;;;;;4186840;28;20051;-57
2023/08/01 10:17:25;;;;;;;3.75;0.80;;;28.70;95.00;;;;;;4176443;28;20228;-58
2023/08/01 10:19:48;;;;;;;0.80;0.70;;;28.30;95.00;;;;;;4181989;28;20052;-58
2023/08/01 10:22:09;;;;;;;1.58;0.70;;;27.60;94.50;;;;;;4176886;28;20044;-58
2023/08/01 10:24:30;;;;;;;0.85;0.68;;;27.10;94.80;;;;;;4175022;28;20052;-57
2023/08/01 10:26:50;;;;;;;1.33;0.73;;;27.40;95.50;;;;;;4181480;28;20048;-58
2023/08/01 10:29:09;;;;;;;3.72;1.58;;;28.00;95.00;;;;;;4177708;28;20049;-58
2023/08/01 10:31:29;;;;;;;0.77;0.77;;;28.50;94.80;;;;;;4180981;28;20105;-58
2023/08/01 10:33:50;;;;;;;0.80;0.60;;;28.60;94.00;;;;;;4177310;28;20244;-58
2023/08/01 10:36:26;;;;;;;1.25;0.90;;;28.30;93.50;;;;;;4181014;28;20148;-58
2023/08/01 10:38:49;;;;;;;1.92;0.70;;;28.40;93.90;;;;;;4186650;28;20079;-58
2023/08/01 10:41:22;;;;;;;1.50;0.63;;;28.90;92.80;;;;;;4177606;28;20037;-58
2023/08/01 10:43:42;;;;;;;1.20;0.70;;;29.00;92.60;;;;;;4182603;28;20060;-58
2023/08/01 10:46:04;;;;;;;2.55;0.60;;;28.90;93.70;;;;;;4179193;28;20091;-58
2023/08/01 10:48:25;;;;;;;2.78;0.60;;;28.70;93.10;;;;;;4176772;28;20272;-58
2023/08/01 10:50:57;;;;;;;2.38;0.70;;;29.10;93.50;;;;;;4182179;28;20047;-58
2023/08/01 10:53:17;;;;;;;1.70;0.60;;;29.60;93.10;;;;;;4176822;28;20060;-56
2023/08/01 10:55:46;;;;;;;0.82;0.70;;;29.80;91.60;;;;;;4175079;28;20287;-57
2023/08/01 10:58:06;;;;;;;0.70;0.70;;;29.90;91.20;;;;;;4178042;28;20359;-57
2023/08/01 11:00:26;;;;;;;1.67;0.80;;;30.00;89.90;;;;;;4177529;28;20091;-57
2023/08/01 11:02:53;;;;;;;0.73;0.70;;;30.10;90.00;;;;;;4178546;28;20056;-57
2023/08/01 11:05:13;;;;;;;0.80;0.70;;;30.40;89.70;;;;;;4176121;28;20087;-56
2023/08/01 11:07:34;;;;;;;2.58;0.70;;;30.90;84.60;;;;;;4182717;28;20125;-57
2023/08/01 11:10:10;;;;;;;2.10;0.77;;;31.00;83.60;;;;;;4187847;28;20363;-56
2023/08/01 11:12:33;;;;;;;2.60;0.63;;;31.70;84.70;;;;;;4178359;28;20283;-57
2023/08/01 11:15:02;;;;;;;4.57;0.70;;;31.90;83.10;;;;;;4183483;28;20079;-56
2023/08/01 11:17:23;;;;;;;0.73;0.68;;;32.10;83.00;;;;;;4174255;28;20113;-56
2023/08/01 11:19:43;;;;;;;0.85;0.60;;;31.90;83.20;;;;;;4180289;28;20047;-57
2023/08/01 11:22:09;;;;;;;1.10;0.70;;;31.90;83.40;;;;;;4177988;28;20291;-56
2023/08/01 11:24:29;;;;;;;0.80;0.70;;;31.70;81.80;;;;;;4178622;28;20216;-56
2023/08/01 11:26:50;;;;;;;1.20;0.70;;;31.50;83.60;;;;;;4176635;28;20084;-57
2023/08/01 11:29:11;;;;;;;1.27;0.60;;;31.60;83.60;;;;;;4180980;28;20386;-56
2023/08/01 11:31:31;;;;;;;2.63;0.70;;;31.90;82.30;;;;;;4182610;28;20048;-57
2023/08/01 11:33:58;;;;;;;0.70;0.70;;;31.50;83.30;;;;;;4186323;28;20047;-57
2023/08/01 11:36:18;;;;;;;0.80;0.63;;;31.80;83.30;;;;;;4178178;28;20122;-56
2023/08/01 11:38:39;;;;;;;1.23;0.70;;;31.10;80.80;;;;;;4184484;28;20048;-57
2023/08/01 11:41:00;;;;;;;1.10;0.70;;;31.10;83.90;;;;;;4177924;28;20053;-56
2023/08/01 11:43:20;;;;;;;5.55;1.40;;;30.40;83.50;;;;;;4178972;28;20048;-57
2023/08/01 11:45:51;;;;;;;2.25;0.77;;;30.50;82.80;;;;;;4182237;28;20483;-57
2023/08/01 11:48:13;;;;;;;2.47;0.70;;;29.90;83.60;;;;;;4173807;28;20270;-57
2023/08/01 11:50:33;;;;;;;1.85;1.50;;;29.70;84.00;;;;;;4177599;28;20040;-57
2023/08/01 11:52:53;;;;;;;0.95;0.70;;;30.00;84.00;;;;;;4178548;28;20045;-57
2023/08/01 11:55:27;;;;;;;2.65;0.75;;;29.80;84.50;;;;;;4174117;28;20264;-57
2023/08/01 11:57:55;;;;;;;0.70;0.70;;;29.50;85.40;;;;;;4179206;28;20396;-56
2023/08/01 12:00:21;;;;;;;0.77;0.65;;;29.80;85.70;;;;;;4178709;28;20245;-57
2023/08/01 12:02:41;;;;;;;1.58;0.70;;;30.30;87.20;;;;;;4184281;28;20383;-57
2023/08/01 12:05:02;;;;;;;1.48;0.70;;;30.30;86.40;;;;;;4184438;28;20072;-57
2023/08/01 12:07:24;;;;;;;0.95;0.70;;;30.30;88.20;;;;;;4180408;28;20072;-57
2023/08/01 12:09:54;;;;;;;0.70;0.70;;;30.40;87.60;;;;;;4185025;28;20151;-56
2023/08/01 12:12:16;;;;;;;2.28;1.02;;;30.30;85.10;;;;;;4174721;28;20048;-57
2023/08/01 12:14:42;;;;;;;0.63;0.60;;;30.20;85.80;;;;;;4180797;28;20108;-56